Time;durP1;ratioP1;P1;durP2;ratioP2;P2;SDS_P1;SDS_P2;PMS_P1;PMS_P2;Temp;Humidity;BMP_temperature;BMP_pressure;BME280_temperature;BME280_humidity;BME280_pressure;Samples;Min_cycle;Max_cycle;Signal;HPM_P1;HPM_P2
2021/01/25 00:01:17;;;;;;;;;;;;;;;5.08;60.24;99160.44;5053668;28;20399;-57
2021/01/25 00:03:42;;;;;;;;;;;;;;;5.07;60.38;99170.16;5057800;28;19963;-58
2021/01/25 00:06:07;;;;;;;;;;;;;;;5.06;59.77;99163.16;5056137;28;19963;-58
2021/01/25 00:08:33;;;;;;;;;;;;;;;5.06;59.86;99168.47;5057501;28;19916;-60
2021/01/25 00:10:58;;;;;;;;;;;;;;;5.04;59.53;99170.34;5057814;28;19912;-58
2021/01/25 00:13:23;;;;;;;;;;;;;;;5.01;60.13;99168.72;5057420;28;19912;-57
2021/01/25 00:15:48;;;;;;;;;;;;;;;5.00;59.82;99166.16;5057304;28;19913;-57
2021/01/25 00:18:13;;;;;;;;;;;;;;;4.99;60.57;99167.97;5056039;28;19913;-57
2021/01/25 00:20:39;;;;;;;;;;;;;;;4.97;60.56;99174.28;5057500;28;19974;-57
2021/01/25 00:23:04;;;;;;;;;;;;;;;4.97;60.33;99166.34;5057034;28;19979;-58
2021/01/25 00:25:29;;;;;;;;;;;;;;;4.96;59.90;99178.72;5057046;28;19966;-57
2021/01/25 00:27:54;;;;;;;;;;;;;;;4.97;59.96;99171.63;5057132;28;19947;-59
2021/01/25 00:30:20;;;;;;;;;;;;;;;4.95;60.12;99177.00;5057692;28;20023;-58
2021/01/25 00:32:45;;;;;;;;;;;;;;;4.96;60.40;99169.94;5057738;28;20288;-58
2021/01/25 00:35:11;;;;;;;;;;;;;;;4.96;60.53;99172.56;5055705;28;20369;-58
2021/01/25 00:37:36;;;;;;;;;;;;;;;4.97;60.16;99168.97;5055578;28;20380;-58
2021/01/25 00:40:01;;;;;;;;;;;;;;;4.97;60.14;99169.84;5057192;28;20007;-58
2021/01/25 00:42:26;;;;;;;;;;;;;;;4.98;60.74;99171.53;5056234;28;20019;-58
2021/01/25 00:44:51;;;;;;;;;;;;;;;4.98;60.21;99170.69;5059489;28;19920;-56
2021/01/25 00:47:17;;;;;;;;;;;;;;;4.98;60.47;99173.34;5057346;28;19935;-59
2021/01/25 00:49:42;;;;;;;;;;;;;;;4.98;60.52;99170.69;5057073;28;19936;-56
2021/01/25 00:52:07;;;;;;;;;;;;;;;4.99;60.37;99177.69;5057127;28;20304;-58
2021/01/25 00:54:32;;;;;;;;;;;;;;;5.01;60.24;99176.66;5056882;28;20381;-60
2021/01/25 00:56:58;;;;;;;;;;;;;;;5.01;60.01;99176.66;5056595;28;20011;-55
2021/01/25 00:59:23;;;;;;;;;;;;;;;5.02;60.79;99174.88;5056755;28;19912;-58
2021/01/25 01:01:48;;;;;;;;;;;;;;;5.02;60.50;99172.22;5056793;28;19913;-58
2021/01/25 01:04:13;;;;;;;;;;;;;;;5.03;60.16;99179.22;5056354;28;19913;-55
2021/01/25 01:06:39;;;;;;;;;;;;;;;5.03;60.09;99174.78;5038583;28;19912;-58
2021/01/25 01:09:04;;;;;;;;;;;;;;;5.05;60.43;99182.63;5056220;28;19917;-57
2021/01/25 01:11:30;;;;;;;;;;;;;;;5.05;59.99;99176.47;5056536;28;20483;-58
2021/01/25 01:13:55;;;;;;;;;;;;;;;5.06;60.66;99184.31;5055277;28;20403;-57
2021/01/25 01:16:20;;;;;;;;;;;;;;;5.05;59.87;99182.63;5056849;28;19913;-57
2021/01/25 01:18:46;;;;;;;;;;;;;;;5.05;60.54;99179.13;5056175;28;20338;-58
2021/01/25 01:21:11;;;;;;;;;;;;;;;5.05;60.06;99179.97;5054733;28;19927;-59
2021/01/25 01:23:36;;;;;;;;;;;;;;;5.06;60.10;99183.47;5056406;28;19920;-58
2021/01/25 01:26:01;;;;;;;;;;;;;;;5.05;60.20;99177.34;5056176;28;19920;-58
2021/01/25 01:28:26;;;;;;;;;;;;;;;5.06;60.37;99175.53;5056015;28;19965;-58
2021/01/25 01:30:52;;;;;;;;;;;;;;;5.05;60.27;99172.03;5056020;28;19912;-57
2021/01/25 01:33:17;;;;;;;;;;;;;;;5.05;60.15;99179.13;5055789;28;19912;-55
2021/01/25 01:35:42;;;;;;;;;;;;;;;5.03;60.22;99188.00;5055672;28;19912;-54
2021/01/25 01:38:07;;;;;;;;;;;;;;;5.02;60.10;99188.09;5055799;28;19943;-58
2021/01/25 01:40:32;;;;;;;;;;;;;;;5.01;60.24;99187.22;5056101;28;19919;-58
2021/01/25 01:42:58;;;;;;;;;;;;;;;5.00;60.20;99185.53;5056356;28;19980;-57
2021/01/25 01:45:23;;;;;;;;;;;;;;;4.99;60.12;99183.81;5055686;28;20365;-57
2021/01/25 01:47:48;;;;;;;;;;;;;;;4.99;60.64;99186.47;5055862;28;19917;-57
2021/01/25 01:50:13;;;;;;;;;;;;;;;4.99;60.26;99193.53;5054399;28;19913;-58
2021/01/25 01:52:39;;;;;;;;;;;;;;;4.99;60.57;99193.53;5054439;28;19913;-58
2021/01/25 01:55:04;;;;;;;;;;;;;;;4.98;60.64;99195.34;5055362;28;19913;-58
2021/01/25 01:57:30;;;;;;;;;;;;;;;4.96;60.63;99202.50;5055653;28;19920;-56
2021/01/25 01:59:56;;;;;;;;;;;;;;;4.97;60.65;99198.06;5055498;28;19941;-57
2021/01/25 02:02:21;;;;;;;;;;;;;;;4.96;60.69;99194.56;5055751;28;19913;-57
2021/01/25 02:04:46;;;;;;;;;;;;;;;4.95;60.35;99192.88;5055170;28;19917;-58
2021/01/25 02:07:11;;;;;;;;;;;;;;;4.95;60.70;99202.59;5055238;28;19932;-58
2021/01/25 02:09:38;;;;;;;;;;;;;;;4.94;60.86;99203.53;5055083;28;20014;-57
2021/01/25 02:12:04;;;;;;;;;;;;;;;4.93;60.39;99209.75;5053986;28;20003;-58
2021/01/25 02:14:29;;;;;;;;;;;;;;;4.92;60.89;99213.34;5055209;28;19920;-55
2021/01/25 02:16:55;;;;;;;;;;;;;;;4.91;60.96;99211.63;5054863;28;20305;-59
2021/01/25 02:19:24;;;;;;;;;;;;;;;4.90;61.00;99207.28;5053918;28;19912;-58
2021/01/25 02:22:01;;;;;;;;;;;;;;;4.89;60.39;99214.38;5054901;28;20324;-59
2021/01/25 02:24:32;;;;;;;;;;;;;;;4.89;61.00;99217.00;5053370;28;19913;-57
2021/01/25 02:27:03;;;;;;;;;;;;;;;4.88;60.63;99206.53;5054130;28;19913;-57
2021/01/25 02:29:29;;;;;;;;;;;;;;;4.87;60.73;99215.38;5054628;28;19967;-58
2021/01/25 02:31:54;;;;;;;;;;;;;;;4.86;61.02;99213.69;5053511;28;19917;-56
2021/01/25 02:34:19;;;;;;;;;;;;;;;4.86;60.79;99216.31;5055656;28;19920;-58
2021/01/25 02:36:45;;;;;;;;;;;;;;;4.84;60.83;99200.56;5055136;28;19916;-57
2021/01/25 02:39:10;;;;;;;;;;;;;;;4.86;60.95;99205.75;5053975;28;19915;-56
2021/01/25 02:41:35;;;;;;;;;;;;;;;4.85;60.88;99207.53;5054914;28;19913;-58
2021/01/25 02:44:02;;;;;;;;;;;;;;;4.86;60.84;99213.69;5054469;28;19913;-57
2021/01/25 02:46:27;;;;;;;;;;;;;;;4.86;60.78;99218.97;5053326;28;19912;-57
2021/01/25 02:48:52;;;;;;;;;;;;;;;4.85;60.91;99211.97;5054436;28;19924;-58
2021/01/25 02:51:18;;;;;;;;;;;;;;;4.85;61.01;99215.47;5054420;28;19935;-54
2021/01/25 02:53:43;;;;;;;;;;;;;;;4.85;61.02;99219.91;5053534;28;20384;-57
2021/01/25 02:56:08;;;;;;;;;;;;;;;4.86;60.94;99217.19;5054217;28;20300;-53
2021/01/25 02:58:33;;;;;;;;;;;;;;;4.86;61.25;99219.81;5054506;28;20309;-57
2021/01/25 03:00:58;;;;;;;;;;;;;;;4.87;60.75;99215.38;5053323;28;20377;-54
2021/01/25 03:03:24;;;;;;;;;;;;;;;4.87;61.25;99220.69;5054276;28;19913;-54
2021/01/25 03:05:49;;;;;;;;;;;;;;;4.85;61.58;99222.56;5054073;28;19917;-54
2021/01/25 03:08:14;;;;;;;;;;;;;;;4.85;61.04;99226.03;5054065;28;19921;-56
2021/01/25 03:10:39;;;;;;;;;;;;;;;4.83;61.10;99221.75;5054446;28;19920;-58
2021/01/25 03:13:05;;;;;;;;;;;;;;;4.84;61.02;99224.34;5054029;28;19923;-55
2021/01/25 03:15:32;;;;;;;;;;;;;;;4.82;61.65;99223.53;5054048;28;19913;-55
2021/01/25 03:17:57;;;;;;;;;;;;;;;4.83;61.16;99229.69;5053940;28;19912;-57
2021/01/25 03:20:23;;;;;;;;;;;;;;;4.84;61.54;99234.06;5053846;28;19936;-58
2021/01/25 03:22:48;;;;;;;;;;;;;;;4.84;61.64;99226.13;5053924;28;20300;-57
2021/01/25 03:25:13;;;;;;;;;;;;;;;4.84;61.05;99227.00;5054098;28;20403;-58
2021/01/25 03:27:38;;;;;;;;;;;;;;;4.85;61.24;99233.97;5054042;28;19917;-55
2021/01/25 03:30:08;;;;;;;;;;;;;;;4.84;61.12;99234.06;5053716;28;19913;-55
2021/01/25 03:32:33;;;;;;;;;;;;;;;4.85;61.11;99233.97;5053813;28;19919;-56
2021/01/25 03:34:58;;;;;;;;;;;;;;;4.86;61.25;99235.69;5052343;28;19912;-56
2021/01/25 03:37:23;;;;;;;;;;;;;;;4.86;60.96;99237.47;5053058;28;19920;-57
2021/01/25 03:39:49;;;;;;;;;;;;;;;4.86;61.08;99235.69;5052579;28;20316;-57
2021/01/25 03:42:14;;;;;;;;;;;;;;;4.86;61.28;99226.91;5053850;28;20447;-58
2021/01/25 03:44:39;;;;;;;;;;;;;;;4.87;60.97;99231.25;5053780;28;19920;-56
2021/01/25 03:47:04;;;;;;;;;;;;;;;4.88;61.20;99236.44;5053855;28;19924;-57
2021/01/25 03:49:29;;;;;;;;;;;;;;;4.88;61.05;99235.59;5053890;28;19924;-57
2021/01/25 03:51:54;;;;;;;;;;;;;;;4.87;60.87;99232.09;5052702;28;19917;-56
2021/01/25 03:54:20;;;;;;;;;;;;;;;4.88;61.34;99238.25;5054301;28;19913;-58
2021/01/25 03:56:45;;;;;;;;;;;;;;;4.88;60.84;99238.25;5053744;28;19920;-58
2021/01/25 03:59:10;;;;;;;;;;;;;;;4.88;61.44;99232.97;5052902;28;19913;-56
2021/01/25 04:01:35;;;;;;;;;;;;;;;4.88;61.05;99235.59;5053923;28;19913;-57
2021/01/25 04:04:01;;;;;;;;;;;;;;;4.89;61.20;99234.66;5054290;28;19913;-54
2021/01/25 04:06:26;;;;;;;;;;;;;;;4.89;61.20;99243.44;5053986;28;19951;-54
2021/01/25 04:08:51;;;;;;;;;;;;;;;4.89;60.96;99240.81;5053747;28;19924;-58
2021/01/25 04:11:16;;;;;;;;;;;;;;;4.89;61.38;99234.66;5053710;28;20324;-57
2021/01/25 04:13:41;;;;;;;;;;;;;;;4.89;61.63;99238.16;5052072;28;20381;-57
2021/01/25 04:16:07;;;;;;;;;;;;;;;4.89;61.26;99245.25;5053645;28;19913;-58
2021/01/25 04:18:33;;;;;;;;;;;;;;;4.89;61.44;99235.50;5055329;28;20388;-57
2021/01/25 04:20:58;;;;;;;;;;;;;;;4.90;61.38;99241.66;5055689;28;19920;-57
2021/01/25 04:23:24;;;;;;;;;;;;;;;4.90;61.22;99247.78;5056473;28;19912;-58
2021/01/25 04:25:49;;;;;;;;;;;;;;;4.90;61.55;99242.50;5056977;28;19913;-58
2021/01/25 04:28:14;;;;;;;;;;;;;;;4.92;60.93;99239.78;5057219;28;19916;-57
2021/01/25 04:30:39;;;;;;;;;;;;;;;4.90;60.90;99247.78;5057575;28;19913;-57
2021/01/25 04:33:04;;;;;;;;;;;;;;;4.91;61.55;99251.28;5056628;28;20286;-57
2021/01/25 04:35:30;;;;;;;;;;;;;;;4.90;60.63;99249.59;5053827;28;20373;-54
2021/01/25 04:37:55;;;;;;;;;;;;;;;4.90;60.89;99257.53;5053753;28;19917;-59
2021/01/25 04:40:20;;;;;;;;;;;;;;;4.89;61.23;99259.31;5054019;28;19913;-56
2021/01/25 04:42:46;;;;;;;;;;;;;;;4.89;60.80;99256.66;5053500;28;19913;-55
2021/01/25 04:45:11;;;;;;;;;;;;;;;4.88;60.83;99257.59;5053245;28;19913;-56
2021/01/25 04:47:37;;;;;;;;;;;;;;;4.89;61.18;99261.09;5053889;28;19920;-58
2021/01/25 04:50:03;;;;;;;;;;;;;;;4.88;60.96;99260.25;5056015;28;19920;-59
2021/01/25 04:52:28;;;;;;;;;;;;;;;4.88;61.16;99259.41;5056741;28;19913;-58
2021/01/25 04:54:53;;;;;;;;;;;;;;;4.87;60.61;99262.97;5055564;28;19912;-57
2021/01/25 04:57:19;;;;;;;;;;;;;;;4.87;61.34;99258.53;5057152;28;19912;-57
2021/01/25 04:59:44;;;;;;;;;;;;;;;4.87;61.22;99262.97;5055445;28;19963;-56
2021/01/25 05:02:09;;;;;;;;;;;;;;;4.86;60.73;99269.19;5056667;28;19998;-58
2021/01/25 05:04:34;;;;;;;;;;;;;;;4.83;60.67;99261.41;5079146;22;19928;-63
2021/01/25 05:07:00;;;;;;;;;;;;;;;4.82;60.55;99268.47;5055355;28;19924;-63
2021/01/25 05:09:25;;;;;;;;;;;;;;;4.80;60.63;99259.78;5038262;28;19924;-63
2021/01/25 05:11:57;;;;;;;;;;;;;;;4.79;61.12;99259.88;5055215;28;19920;-62
2021/01/25 05:14:22;;;;;;;;;;;;;;;4.78;60.92;99263.44;5038230;28;19913;-63
2021/01/25 05:16:47;;;;;;;;;;;;;;;4.75;61.24;99256.53;5054813;28;19924;-63
2021/01/25 05:19:13;;;;;;;;;;;;;;;4.75;60.77;99259.19;5056343;28;19916;-63
2021/01/25 05:21:42;;;;;;;;;;;;;;;4.75;60.52;99263.63;5054804;28;20381;-63
2021/01/25 05:24:07;;;;;;;;;;;;;;;4.74;60.73;99264.56;5054722;28;19920;-63
2021/01/25 05:26:33;;;;;;;;;;;;;;;4.71;60.84;99261.13;5054665;28;20288;-63
2021/01/25 05:28:58;;;;;;;;;;;;;;;4.70;61.21;99256.78;5054590;28;19917;-63
2021/01/25 05:31:24;;;;;;;;;;;;;;;4.69;60.68;99259.53;5054640;28;19936;-63
2021/01/25 05:33:50;;;;;;;;;;;;;;;4.66;60.94;99268.47;5054814;28;19960;-63
2021/01/25 05:36:22;;;;;;;;;;;;;;;4.65;61.21;99273.84;5037868;28;19920;-63
2021/01/25 05:38:47;;;;;;;;;;;;;;;4.63;60.75;99273.91;5054760;28;19920;-63
2021/01/25 05:41:14;;;;;;;;;;;;;;;4.62;60.86;99268.72;5054481;28;19916;-63
2021/01/25 05:43:39;;;;;;;;;;;;;;;4.60;60.56;99267.94;5037621;28;19913;-63
2021/01/25 05:46:05;;;;;;;;;;;;;;;4.58;60.60;99275.94;5054515;28;20357;-63
2021/01/25 05:48:30;;;;;;;;;;;;;;;4.58;60.76;99278.59;5054157;28;20025;-63
2021/01/25 05:50:55;;;;;;;;;;;;;;;4.56;60.75;99275.19;5054230;28;19912;-63
2021/01/25 05:53:20;;;;;;;;;;;;;;;4.55;60.71;99283.19;5055805;28;19913;-63
2021/01/25 05:55:45;;;;;;;;;;;;;;;4.55;60.54;99272.63;5054165;28;19912;-63
2021/01/25 05:58:11;;;;;;;;;;;;;;;4.55;60.32;99285.84;5054180;28;20010;-63
2021/01/25 06:00:36;;;;;;;;;;;;;;;4.52;60.97;99286.84;5053483;28;20399;-63
2021/01/25 06:03:02;;;;;;;;;;;;;;;4.51;60.31;99293.06;5053920;28;19912;-63
2021/01/25 06:05:27;;;;;;;;;;;;;;;4.49;60.80;99297.59;5054035;28;19921;-63
2021/01/25 06:07:52;;;;;;;;;;;;;;;4.49;61.20;99294.94;5054941;28;20373;-63
2021/01/25 06:10:19;;;;;;;;;;;;;;;4.50;60.59;99298.44;5053842;28;19913;-63
2021/01/25 06:12:44;;;;;;;;;;;;;;;4.51;61.05;99303.66;5053785;28;19917;-62
2021/01/25 06:15:17;;;;;;;;;;;;;;;4.51;60.69;99308.94;5053711;28;19924;-63
2021/01/25 06:17:43;;;;;;;;;;;;;;;4.53;60.63;99308.84;5054023;28;20387;-63
2021/01/25 06:20:08;;;;;;;;;;;;;;;4.54;61.03;99313.19;5053683;28;19912;-63
2021/01/25 06:22:34;;;;;;;;;;;;;;;4.53;60.84;99312.34;5055049;28;19920;-63
2021/01/25 06:24:59;;;;;;;;;;;;;;;4.54;60.37;99313.19;5053458;28;19939;-61
2021/01/25 06:27:24;;;;;;;;;;;;;;;4.53;60.27;99322.91;5053561;28;19913;-63
2021/01/25 06:29:50;;;;;;;;;;;;;;;4.53;60.70;99319.41;5053388;28;20274;-63
2021/01/25 06:32:15;;;;;;;;;;;;;;;4.52;60.50;99317.72;5053368;28;20422;-63
2021/01/25 06:34:41;;;;;;;;;;;;;;;4.54;60.82;99323.75;5054734;28;19916;-63
2021/01/25 06:37:08;;;;;;;;;;;;;;;4.53;60.70;99328.19;5053429;28;20301;-62
2021/01/25 06:39:33;;;;;;;;;;;;;;;4.54;60.50;99327.25;5053547;28;20059;-62
2021/01/25 06:41:59;;;;;;;;;;;;;;;4.54;60.39;99323.75;5054862;28;19948;-62
2021/01/25 06:44:25;;;;;;;;;;;;;;;4.56;60.16;99327.19;5036474;28;20464;-63
2021/01/25 06:46:54;;;;;;;;;;;;;;;4.57;60.77;99324.44;5036415;28;19952;-63
2021/01/25 06:49:19;;;;;;;;;;;;;;;4.58;59.81;99326.16;5036343;28;20365;-63
2021/01/25 06:51:44;;;;;;;;;;;;;;;4.61;59.91;99335.72;5053421;28;19912;-62
2021/01/25 06:54:11;;;;;;;;;;;;;;;4.62;60.14;99338.28;5053220;28;19913;-63
2021/01/25 06:56:50;;;;;;;;;;;;;;;4.62;60.40;99337.44;5052826;28;19916;-63
2021/01/25 06:59:18;;;;;;;;;;;;;;;4.64;59.95;99340.84;5036135;28;19939;-63
2021/01/25 07:01:43;;;;;;;;;;;;;;;4.66;59.86;99342.47;5053096;28;19917;-63
2021/01/25 07:04:12;;;;;;;;;;;;;;;4.67;59.94;99344.16;5036239;28;19959;-62
2021/01/25 07:06:37;;;;;;;;;;;;;;;4.69;59.88;99355.53;5052575;28;19924;-62
2021/01/25 07:09:04;;;;;;;;;;;;;;;4.71;60.25;99353.66;5052426;28;19921;-62
2021/01/25 07:11:29;;;;;;;;;;;;;;;4.73;60.29;99353.56;5051707;28;20269;-63
2021/01/25 07:13:54;;;;;;;;;;;;;;;4.76;59.60;99352.53;5052540;28;19919;-63
2021/01/25 07:16:22;;;;;;;;;;;;;;;4.77;59.61;99356.91;5052864;28;20303;-62
2021/01/25 07:18:48;;;;;;;;;;;;;;;4.78;59.62;99358.59;5053753;28;20284;-63
2021/01/25 07:21:14;;;;;;;;;;;;;;;4.79;59.35;99362.97;5052465;28;19913;-63
2021/01/25 07:23:42;;;;;;;;;;;;;;;4.79;60.10;99361.16;5053870;28;19948;-63
2021/01/25 07:26:08;;;;;;;;;;;;;;;4.81;59.53;99364.59;5052572;28;19919;-63
2021/01/25 07:28:33;;;;;;;;;;;;;;;4.82;59.93;99360.16;5052212;28;19921;-63
2021/01/25 07:30:58;;;;;;;;;;;;;;;4.83;59.82;99360.09;5053766;28;19913;-63
2021/01/25 07:33:23;;;;;;;;;;;;;;;4.86;59.60;99367.00;5053475;28;19917;-63
2021/01/25 07:35:49;;;;;;;;;;;;;;;4.87;60.10;99368.72;5052343;28;19920;-61
2021/01/25 07:38:14;;;;;;;;;;;;;;;4.89;59.73;99366.84;5052539;28;19920;-63
2021/01/25 07:40:39;;;;;;;;;;;;;;;4.90;59.84;99371.19;5053440;28;19913;-63
2021/01/25 07:43:05;;;;;;;;;;;;;;;4.92;59.07;99371.97;5052298;28;19913;-63
2021/01/25 07:45:31;;;;;;;;;;;;;;;4.91;59.63;99371.13;5035476;28;19967;-63
2021/01/25 07:47:56;;;;;;;;;;;;;;;4.93;59.51;99374.53;5052128;28;19917;-63
2021/01/25 07:50:21;;;;;;;;;;;;;;;4.95;59.27;99382.38;5053288;28;19913;-63
2021/01/25 07:52:56;;;;;;;;;;;;;;;4.97;59.21;99385.81;5052085;28;19920;-63
2021/01/25 07:55:21;;;;;;;;;;;;;;;4.99;59.84;99389.22;5051853;28;20448;-63
2021/01/25 07:57:47;;;;;;;;;;;;;;;5.00;59.61;99386.50;5052038;28;19974;-63
2021/01/25 08:00:16;;;;;;;;;;;;;;;5.01;59.51;99392.63;5053335;28;19959;-62
2021/01/25 08:02:41;;;;;;;;;;;;;;;5.02;59.45;99394.34;5052091;28;20301;-63
2021/01/25 08:05:06;;;;;;;;;;;;;;;5.03;59.39;99398.69;5051779;28;19917;-63
2021/01/25 08:07:31;;;;;;;;;;;;;;;5.06;59.74;99397.69;5051938;28;19936;-63
2021/01/25 08:09:56;;;;;;;;;;;;;;;5.06;59.32;99401.16;5052056;28;19913;-63
2021/01/25 08:12:23;;;;;;;;;;;;;;;5.07;59.60;99402.03;5053042;28;19938;-63
2021/01/25 08:14:52;;;;;;;;;;;;;;;5.08;58.98;99399.31;5051999;28;19913;-63
2021/01/25 08:17:21;;;;;;;;;;;;;;;5.09;59.19;99408.94;5051980;28;20333;-63
2021/01/25 08:19:46;;;;;;;;;;;;;;;5.10;59.28;99413.28;5051864;28;19912;-63
2021/01/25 08:22:13;;;;;;;;;;;;;;;5.10;59.15;99407.16;5051798;28;19919;-61
2021/01/25 08:24:39;;;;;;;;;;;;;;;5.09;59.26;99414.22;5055920;28;19963;-62
2021/01/25 08:27:05;;;;;;;;;;;;;;;5.09;58.76;99411.59;5056151;28;19974;-63
2021/01/25 08:29:30;;;;;;;;;;;;;;;5.08;58.66;99415.16;5057118;28;19921;-63
2021/01/25 08:31:55;;;;;;;;;;;;;;;5.07;59.15;99413.47;5056452;28;19913;-63
2021/01/25 08:34:23;;;;;;;;;;;;;;;5.08;59.42;99420.47;5056253;28;19937;-63
2021/01/25 08:37:08;;;;;;;;;;;;;;;5.08;58.85;99417.81;5056984;28;19912;-63
2021/01/25 08:39:43;;;;;;;;;;;;;;;5.09;59.35;99422.16;5055609;28;19913;-62
2021/01/25 08:42:10;;;;;;;;;;;;;;;5.11;58.89;99424.72;5055516;28;19920;-63
2021/01/25 08:44:35;;;;;;;;;;;;;;;5.11;58.88;99424.72;5055458;28;19983;-64
2021/01/25 08:47:07;;;;;;;;;;;;;;;5.12;59.40;99431.72;5055213;28;19916;-63
2021/01/25 08:49:34;;;;;;;;;;;;;;;5.13;59.23;99434.28;5055256;28;19921;-63
2021/01/25 08:52:00;;;;;;;;;;;;;;;5.15;59.48;99439.50;5055330;28;19917;-63
2021/01/25 08:54:26;;;;;;;;;;;;;;;5.16;59.29;99442.06;5055551;28;19922;-60
2021/01/25 08:56:51;;;;;;;;;;;;;;;5.18;59.12;99445.47;5055234;28;19919;-62
2021/01/25 08:59:26;;;;;;;;;;;;;;;5.20;58.93;99441.00;5055113;28;19912;-63
2021/01/25 09:01:51;;;;;;;;;;;;;;;5.23;59.07;99451.41;5055054;28;19912;-63
2021/01/25 09:04:17;;;;;;;;;;;;;;;5.24;58.67;99447.81;5055549;28;20030;-62
2021/01/25 09:06:52;;;;;;;;;;;;;;;5.25;58.68;99454.81;5055045;28;20308;-63
2021/01/25 09:09:17;;;;;;;;;;;;;;;5.29;58.53;99456.38;5055128;28;19927;-63
2021/01/25 09:11:43;;;;;;;;;;;;;;;5.32;58.85;99458.84;5054995;28;19999;-63
2021/01/25 09:14:08;;;;;;;;;;;;;;;5.36;58.33;99464.81;5055281;28;19917;-63
2021/01/25 09:16:33;;;;;;;;;;;;;;;5.39;58.68;99462.00;5055028;28;19917;-63
2021/01/25 09:18:58;;;;;;;;;;;;;;;5.41;58.64;99465.44;5055262;28;20265;-63
2021/01/25 09:21:24;;;;;;;;;;;;;;;5.43;58.83;99468.84;5055749;28;20385;-63
2021/01/25 09:23:49;;;;;;;;;;;;;;;5.46;58.76;99467.84;5054604;28;19929;-63
2021/01/25 09:26:14;;;;;;;;;;;;;;;5.49;58.59;99467.66;5055594;28;19920;-63
2021/01/25 09:28:39;;;;;;;;;;;;;;;5.54;57.98;99476.22;5054412;28;19972;-61
2021/01/25 09:31:05;;;;;;;;;;;;;;;5.59;58.42;99474.19;5055696;28;19944;-63
2021/01/25 09:33:30;;;;;;;;;;;;;;;5.63;57.82;99473.09;5054323;28;19912;-63
2021/01/25 09:35:56;;;;;;;;;;;;;;;5.69;57.76;99485.13;5053726;28;19913;-63
2021/01/25 09:38:21;;;;;;;;;;;;;;;5.74;57.80;99480.44;5055556;28;19912;-63
2021/01/25 09:40:46;;;;;;;;;;;;;;;5.78;57.50;99474.88;5055598;28;19962;-63
2021/01/25 09:43:11;;;;;;;;;;;;;;;5.84;57.90;99487.78;5054410;28;19920;-62
2021/01/25 09:45:36;;;;;;;;;;;;;;;5.87;57.05;99487.63;5055397;28;19920;-62
2021/01/25 09:48:04;;;;;;;;;;;;;;;5.89;56.99;99488.41;5055278;28;19940;-63
2021/01/25 09:50:29;;;;;;;;;;;;;;;5.90;57.38;99489.28;5054189;28;19913;-63
2021/01/25 09:52:56;;;;;;;;;;;;;;;5.89;56.82;99496.38;5054085;28;20285;-63
2021/01/25 09:55:21;;;;;;;;;;;;;;;5.88;57.24;99489.31;5055112;28;19912;-63
2021/01/25 09:57:46;;;;;;;;;;;;;;;5.88;56.78;99497.28;5055131;28;19999;-63
2021/01/25 10:00:12;;;;;;;;;;;;;;;5.88;56.81;99499.91;5055438;28;19959;-63
2021/01/25 10:02:38;;;;;;;;;;;;;;;5.89;57.33;99501.66;5054001;28;19913;-63
2021/01/25 10:05:04;;;;;;;;;;;;;;;5.89;56.68;99504.31;5053650;28;19921;-64
2021/01/25 10:07:34;;;;;;;;;;;;;;;5.88;56.77;99515.81;5053809;28;20012;-63
2021/01/25 10:09:59;;;;;;;;;;;;;;;5.86;56.98;99514.19;5055075;28;19924;-63
2021/01/25 10:12:25;;;;;;;;;;;;;;;5.84;57.04;99516.91;5055305;28;19912;-63
2021/01/25 10:14:50;;;;;;;;;;;;;;;5.83;56.94;99528.44;5053440;28;20293;-63
2021/01/25 10:17:15;;;;;;;;;;;;;;;5.80;57.50;99520.66;5054776;28;20384;-63
2021/01/25 10:19:41;;;;;;;;;;;;;;;5.79;57.29;99523.41;5054847;28;19912;-63
2021/01/25 10:22:07;;;;;;;;;;;;;;;5.77;57.23;99517.34;5053527;28;19912;-63
2021/01/25 10:24:32;;;;;;;;;;;;;;;5.74;56.90;99528.09;5053332;28;19912;-63
2021/01/25 10:26:58;;;;;;;;;;;;;;;5.74;57.55;99526.31;5053346;28;19920;-62
2021/01/25 10:29:23;;;;;;;;;;;;;;;5.75;57.24;99532.44;5054414;28;19928;-63
2021/01/25 10:31:48;;;;;;;;;;;;;;;5.76;57.63;99524.44;5054993;28;20296;-63
2021/01/25 10:34:13;;;;;;;;;;;;;;;5.76;57.04;99524.44;5054440;28;20442;-63
2021/01/25 10:36:38;;;;;;;;;;;;;;;5.76;57.11;99532.38;5054251;28;19963;-62
2021/01/25 10:39:04;;;;;;;;;;;;;;;5.77;57.54;99522.63;5054502;28;20023;-63
2021/01/25 10:41:29;;;;;;;;;;;;;;;5.79;57.55;99534.00;5054964;28;19974;-63
2021/01/25 10:43:54;;;;;;;;;;;;;;;5.80;57.53;99531.25;5052994;28;19912;-62
2021/01/25 10:46:19;;;;;;;;;;;;;;;5.83;57.03;99535.53;5053876;28;19912;-63
2021/01/25 10:48:44;;;;;;;;;;;;;;;5.87;57.11;99537.06;5054415;28;19924;-63
2021/01/25 10:51:10;;;;;;;;;;;;;;;5.92;57.26;99537.72;5053171;28;19919;-59
2021/01/25 10:53:35;;;;;;;;;;;;;;;5.95;57.25;99535.78;5053219;28;19912;-63
2021/01/25 10:56:00;;;;;;;;;;;;;;;5.99;56.76;99546.22;5052609;28;19913;-63
2021/01/25 10:58:25;;;;;;;;;;;;;;;6.01;56.58;99539.03;5052724;28;20297;-63
2021/01/25 11:00:52;;;;;;;;;;;;;;;6.03;57.16;99550.41;5052669;28;20431;-63
2021/01/25 11:03:17;;;;;;;;;;;;;;;6.07;56.50;99546.63;5052829;28;19955;-62
2021/01/25 11:05:42;;;;;;;;;;;;;;;6.08;56.63;99554.50;5053883;28;19924;-63
2021/01/25 11:08:07;;;;;;;;;;;;;;;6.08;56.66;99545.69;5053768;28;19928;-63
2021/01/25 11:10:32;;;;;;;;;;;;;;;6.07;56.85;99552.78;5053832;28;19912;-63
2021/01/25 11:12:58;;;;;;;;;;;;;;;6.06;56.44;99548.44;5053708;28;19963;-63
2021/01/25 11:15:23;;;;;;;;;;;;;;;6.04;56.84;99555.59;5052419;28;20403;-62
2021/01/25 11:17:48;;;;;;;;;;;;;;;6.01;56.98;99550.47;5052363;28;20388;-63
2021/01/25 11:20:13;;;;;;;;;;;;;;;5.99;56.82;99562.94;5052790;28;19932;-62
2021/01/25 11:22:40;;;;;;;;;;;;;;;5.99;56.92;99557.66;5052359;28;19913;-63
2021/01/25 11:25:05;;;;;;;;;;;;;;;5.98;56.71;99557.75;5052396;28;19913;-63
2021/01/25 11:27:30;;;;;;;;;;;;;;;5.95;57.18;99564.06;5052288;28;20284;-63
2021/01/25 11:29:55;;;;;;;;;;;;;;;5.96;56.83;99560.47;5053489;28;19917;-62
2021/01/25 11:32:20;;;;;;;;;;;;;;;5.99;56.76;99562.09;5052210;28;19920;-63
2021/01/25 11:34:46;;;;;;;;;;;;;;;6.01;57.14;99565.53;5052209;28;20372;-64
2021/01/25 11:37:11;;;;;;;;;;;;;;;6.01;56.93;99570.81;5053485;28;20345;-61
2021/01/25 11:39:36;;;;;;;;;;;;;;;5.98;56.71;99560.38;5053618;28;19916;-63
2021/01/25 11:42:01;;;;;;;;;;;;;;;5.99;56.79;99560.31;5053287;28;19913;-63
2021/01/25 11:44:26;;;;;;;;;;;;;;;5.99;56.79;99562.09;5052071;28;19912;-64
2021/01/25 11:46:52;;;;;;;;;;;;;;;5.99;57.47;99562.09;5053714;28;19912;-63
2021/01/25 11:49:17;;;;;;;;;;;;;;;5.99;56.91;99554.16;5052233;28;20258;-62
2021/01/25 11:51:43;;;;;;;;;;;;;;;5.98;56.95;99558.59;5052070;28;19920;-63
2021/01/25 11:54:08;;;;;;;;;;;;;;;6.02;56.79;99561.94;5051924;28;19919;-63
2021/01/25 11:56:34;;;;;;;;;;;;;;;6.03;57.33;99571.59;5051822;28;19916;-64
2021/01/25 11:58:59;;;;;;;;;;;;;;;6.04;56.84;99568.00;5056789;28;19920;-58
2021/01/25 12:01:24;;;;;;;;;;;;;;;6.05;56.86;99569.72;5057276;28;19920;-61
2021/01/25 12:03:49;;;;;;;;;;;;;;;6.04;57.36;99570.66;5057175;28;19935;-63
2021/01/25 12:06:14;;;;;;;;;;;;;;;6.04;56.83;99573.28;5055795;28;19924;-63
2021/01/25 12:08:40;;;;;;;;;;;;;;;6.04;57.16;99576.78;5057543;28;19916;-63
2021/01/25 12:11:05;;;;;;;;;;;;;;;6.03;57.58;99569.78;5039119;28;20296;-63
2021/01/25 12:13:30;;;;;;;;;;;;;;;6.03;57.36;99572.44;5055779;28;19912;-63
2021/01/25 12:15:56;;;;;;;;;;;;;;;6.04;56.82;99578.59;5055947;28;20414;-63
2021/01/25 12:18:21;;;;;;;;;;;;;;;6.04;57.25;99581.25;5056068;28;19920;-63
2021/01/25 12:20:46;;;;;;;;;;;;;;;6.02;56.65;99578.69;5056947;28;19913;-63
2021/01/25 12:23:11;;;;;;;;;;;;;;;5.99;57.03;99578.84;5056252;28;19912;-63
2021/01/25 12:25:36;;;;;;;;;;;;;;;5.98;57.47;99584.22;5056876;28;19912;-62
2021/01/25 12:28:02;;;;;;;;;;;;;;;5.95;57.00;99582.59;5056759;28;19924;-63
2021/01/25 12:30:27;;;;;;;;;;;;;;;5.93;57.62;99585.28;5057079;28;19916;-63
2021/01/25 12:32:52;;;;;;;;;;;;;;;5.92;56.90;99594.19;5055532;28;19917;-63
2021/01/25 12:35:18;;;;;;;;;;;;;;;5.91;57.65;99594.25;5039182;28;19912;-63
2021/01/25 12:37:44;;;;;;;;;;;;;;;5.88;57.20;99600.53;5055469;28;19916;-63
2021/01/25 12:40:10;;;;;;;;;;;;;;;5.86;57.15;99586.53;5056752;28;19912;-63
2021/01/25 12:42:35;;;;;;;;;;;;;;;5.86;57.81;99588.31;5055478;28;19921;-62
2021/01/25 12:45:00;;;;;;;;;;;;;;;5.85;57.63;99594.56;5056515;28;19913;-63
2021/01/25 12:47:26;;;;;;;;;;;;;;;5.85;57.68;99595.41;5055360;28;19912;-62
2021/01/25 12:49:51;;;;;;;;;;;;;;;5.86;57.83;99591.84;5055264;28;19917;-64